Kansas City, Missouri
Traffic Map
Current Weather Conditions
Kansas City, Missouri
Clear
Clear
29°
Feels Like: 30°
Wind Chill: 29° Ceiling: Unl
Heat Index: 30° Visibility: 10mi
Dew Point: 18° Wind: 9mph
Humidity: 53% Direction: 120° (ESE)
Pressure: 30.04in Gusts: 0mph
Raw Report DataKMKC 291954Z 12008KT 10SM CLR 29/18 A3004 RMK AO2 SLP165 T02890183
Traffic Incident Summary
Active as of:
Severity:
Category:
InformationThere was an issue retrieving the traffic information for this location. Please try a different location or try again shortly.
Advertisements
Track Severe Weather on mobile